Rockenbach Airport

Jump to: basic info | weather | runways | comments

Related pages: nearby airports | nearby navaids | notams | map

Basic information (top)

Codes: LL97
Location: lon 42.338902, lat -88.084801, elev 800 ft / 244 m msl
Status: small_airport

Weather (top)

Current conditions for Waukegan Regional Airport 11nm (20km) ENE (rec'd 2014/09/03 03:52Z):

KUGN 030352Z AUTO 00000KT 10SM CLR 17/16 A2995 RMK AO2 SLP132 T01670156

Airport forecast for Kenosha Regional Airport 17nm (31km) NNE (rec'd 2014/09/02 00:39Z):

TAF KENW 022337Z 0300/0324 27004KT P6SM FEW200 
     FM030300 00000KT P6SM SKC 
     FM031000 00000KT 3SM BR SKC 
     FM031300 22006KT P6SM SKC 
     FM031900 15007KT P6SM FEW250

Runways (top)

N/S: 2,000 x 100 ft (610 x 30 m) — grass — not lighted

Latest comments (top)

No comments yet for Rockenbach Airport

More... (top)

See also NOTAMs and nearby airports and navaids, or visit the Rockenbach Airport page at the main OurAirports website..